sensor_id;sensor_type;location;lat;lon;timestamp;pressure;altitude;pressure_sealevel;temperature;humidity
23118;BME280;11728;50.624;6.014;2023-02-04T00:03:14;99861.72;;;7.92;100.00
23118;BME280;11728;50.624;6.014;2023-02-04T00:08:15;99862.53;;;7.87;100.00
23118;BME280;11728;50.624;6.014;2023-02-04T00:13:15;99873.84;;;7.80;100.00
23118;BME280;11728;50.624;6.014;2023-02-04T00:18:16;99877.31;;;7.77;100.00
23118;BME280;11728;50.624;6.014;2023-02-04T00:23:16;99882.47;;;7.71;100.00
23118;BME280;11728;50.624;6.014;2023-02-04T00:28:16;99877.19;;;7.68;100.00
23118;BME280;11728;50.624;6.014;2023-02-04T00:33:17;99888.56;;;7.70;100.00
23118;BME280;11728;50.624;6.014;2023-02-04T00:38:17;99881.53;;;7.68;100.00
23118;BME280;11728;50.624;6.014;2023-02-04T00:43:17;99893.75;;;7.64;100.00
23118;BME280;11728;50.624;6.014;2023-02-04T00:48:18;99899.78;;;7.58;100.00
23118;BME280;11728;50.624;6.014;2023-02-04T00:53:18;99901.47;;;7.53;100.00
23118;BME280;11728;50.624;6.014;2023-02-04T00:58:19;99904.03;;;7.50;100.00
23118;BME280;11728;50.624;6.014;2023-02-04T01:03:19;99901.31;;;7.44;100.00
23118;BME280;11728;50.624;6.014;2023-02-04T01:08:19;99898.75;;;7.47;100.00
23118;BME280;11728;50.624;6.014;2023-02-04T01:13:20;99899.75;;;7.55;100.00
23118;BME280;11728;50.624;6.014;2023-02-04T01:18:20;99904.13;;;7.54;100.00
23118;BME280;11728;50.624;6.014;2023-02-04T01:23:20;99899.84;;;7.61;100.00
23118;BME280;11728;50.624;6.014;2023-02-04T01:28:21;99909.56;;;7.66;100.00
23118;BME280;11728;50.624;6.014;2023-02-04T01:33:21;99908.66;;;7.65;100.00
23118;BME280;11728;50.624;6.014;2023-02-04T01:38:22;99916.53;;;7.63;100.00
23118;BME280;11728;50.624;6.014;2023-02-04T01:43:22;99928.75;;;7.59;100.00
23118;BME280;11728;50.624;6.014;2023-02-04T01:48:23;99939.34;;;7.65;100.00
23118;BME280;11728;50.624;6.014;2023-02-04T01:53:25;99931.41;;;7.63;100.00
23118;BME280;11728;50.624;6.014;2023-02-04T01:58:26;99934.03;;;7.63;100.00
23118;BME280;11728;50.624;6.014;2023-02-04T02:03:27;99937.44;;;7.55;100.00
23118;BME280;11728;50.624;6.014;2023-02-04T02:08:28;99935.56;;;7.48;100.00
23118;BME280;11728;50.624;6.014;2023-02-04T02:13:28;99943.28;;;7.38;100.00
23118;BME280;11728;50.624;6.014;2023-02-04T02:18:29;99942.34;;;7.33;100.00
23118;BME280;11728;50.624;6.014;2023-02-04T02:23:54;99940.50;;;7.30;100.00
23118;BME280;11728;50.624;6.014;2023-02-04T02:28:56;99936.16;;;7.31;100.00
23118;BME280;11728;50.624;6.014;2023-02-04T02:33:56;99934.47;;;7.36;100.00
23118;BME280;11728;50.624;6.014;2023-02-04T02:38:57;99945.94;;;7.39;100.00
23118;BME280;11728;50.624;6.014;2023-02-04T02:43:59;99953.88;;;7.41;100.00
23118;BME280;11728;50.624;6.014;2023-02-04T02:48:59;99940.75;;;7.44;100.00
23118;BME280;11728;50.624;6.014;2023-02-04T02:54:00;99947.78;;;7.45;100.00
23118;BME280;11728;50.624;6.014;2023-02-04T02:59:14;99946.94;;;7.49;100.00
23118;BME280;11728;50.624;6.014;2023-02-04T03:04:15;99942.50;;;7.43;100.00
23118;BME280;11728;50.624;6.014;2023-02-04T03:09:18;99949.41;;;7.37;100.00
23118;BME280;11728;50.624;6.014;2023-02-04T03:14:20;99955.50;;;7.36;100.00
23118;BME280;11728;50.624;6.014;2023-02-04T03:19:25;99960.75;;;7.34;100.00
23118;BME280;11728;50.624;6.014;2023-02-04T03:24:25;99959.91;;;7.35;100.00
23118;BME280;11728;50.624;6.014;2023-02-04T03:29:26;99970.44;;;7.38;100.00
23118;BME280;11728;50.624;6.014;2023-02-04T03:34:26;99970.47;;;7.40;100.00
23118;BME280;11728;50.624;6.014;2023-02-04T03:39:26;99966.91;;;7.36;100.00
23118;BME280;11728;50.624;6.014;2023-02-04T03:44:27;99978.22;;;7.34;100.00
23118;BME280;11728;50.624;6.014;2023-02-04T03:49:27;99987.00;;;7.33;100.00
23118;BME280;11728;50.624;6.014;2023-02-04T03:54:27;99989.56;;;7.30;100.00
23118;BME280;11728;50.624;6.014;2023-02-04T03:59:28;99990.50;;;7.32;100.00
23118;BME280;11728;50.624;6.014;2023-02-04T04:04:28;100005.31;;;7.28;100.00
23118;BME280;11728;50.624;6.014;2023-02-04T04:09:29;100006.19;;;7.29;100.00
23118;BME280;11728;50.624;6.014;2023-02-04T04:14:29;100000.94;;;7.29;100.00
23118;BME280;11728;50.624;6.014;2023-02-04T04:19:29;100022.84;;;7.29;100.00
23118;BME280;11728;50.624;6.014;2023-02-04T04:24:31;100018.47;;;7.30;100.00
23118;BME280;11728;50.624;6.014;2023-02-04T04:29:32;100017.72;;;7.38;100.00
23118;BME280;11728;50.624;6.014;2023-02-04T04:34:33;100004.78;;;7.49;100.00
23118;BME280;11728;50.624;6.014;2023-02-04T04:39:33;100001.34;;;7.53;100.00
23118;BME280;11728;50.624;6.014;2023-02-04T04:44:33;99999.41;;;7.43;100.00
23118;BME280;11728;50.624;6.014;2023-02-04T04:49:34;100012.66;;;7.47;100.00
23118;BME280;11728;50.624;6.014;2023-02-04T04:54:35;100020.41;;;7.40;100.00
23118;BME280;11728;50.624;6.014;2023-02-04T04:59:35;100019.56;;;7.41;100.00
23118;BME280;11728;50.624;6.014;2023-02-04T05:04:36;100022.13;;;7.38;100.00
23118;BME280;11728;50.624;6.014;2023-02-04T05:09:36;100023.03;;;7.40;100.00
23118;BME280;11728;50.624;6.014;2023-02-04T05:14:36;100018.56;;;7.36;100.00
23118;BME280;11728;50.624;6.014;2023-02-04T05:19:37;100030.69;;;7.28;100.00
23118;BME280;11728;50.624;6.014;2023-02-04T05:24:37;100032.25;;;7.17;100.00
23118;BME280;11728;50.624;6.014;2023-02-04T05:29:37;100021.94;;;7.27;100.00
23118;BME280;11728;50.624;6.014;2023-02-04T05:34:38;100029.94;;;7.35;100.00
23118;BME280;11728;50.624;6.014;2023-02-04T05:39:38;100036.22;;;7.43;100.00
23118;BME280;11728;50.624;6.014;2023-02-04T05:44:38;100036.13;;;7.37;100.00
23118;BME280;11728;50.624;6.014;2023-02-04T05:49:39;100042.19;;;7.34;100.00
23118;BME280;11728;50.624;6.014;2023-02-04T05:54:39;100034.25;;;7.30;100.00
23118;BME280;11728;50.624;6.014;2023-02-04T05:59:40;100047.09;;;7.15;100.00
23118;BME280;11728;50.624;6.014;2023-02-04T06:04:40;100050.38;;;7.03;100.00
23118;BME280;11728;50.624;6.014;2023-02-04T06:09:40;100059.94;;;7.00;100.00
23118;BME280;11728;50.624;6.014;2023-02-04T06:14:41;100064.34;;;7.01;100.00
23118;BME280;11728;50.624;6.014;2023-02-04T06:19:41;100074.00;;;7.02;100.00
23118;BME280;11728;50.624;6.014;2023-02-04T06:24:41;100072.13;;;6.98;100.00
23118;BME280;11728;50.624;6.014;2023-02-04T06:29:42;100064.22;;;6.95;100.00
23118;BME280;11728;50.624;6.014;2023-02-04T06:34:42;100072.94;;;6.92;100.00
23118;BME280;11728;50.624;6.014;2023-02-04T06:39:43;100074.72;;;6.95;100.00
23118;BME280;11728;50.624;6.014;2023-02-04T06:44:43;100080.94;;;7.00;100.00
23118;BME280;11728;50.624;6.014;2023-02-04T06:49:44;100082.84;;;7.07;100.00
23118;BME280;11728;50.624;6.014;2023-02-04T06:54:44;100087.13;;;7.03;100.00
23118;BME280;11728;50.624;6.014;2023-02-04T06:59:46;100087.97;;;7.01;100.00
23118;BME280;11728;50.624;6.014;2023-02-04T07:04:46;100106.28;;;6.98;100.00
23118;BME280;11728;50.624;6.014;2023-02-04T07:09:48;100103.59;;;6.95;100.00
23118;BME280;11728;50.624;6.014;2023-02-04T07:14:48;100111.50;;;6.95;100.00
23118;BME280;11728;50.624;6.014;2023-02-04T07:19:49;100108.78;;;6.92;100.00
23118;BME280;11728;50.624;6.014;2023-02-04T07:24:49;100107.84;;;6.90;100.00
23118;BME280;11728;50.624;6.014;2023-02-04T07:29:51;100121.78;;;6.85;100.00
23118;BME280;11728;50.624;6.014;2023-02-04T07:34:51;100120.94;;;6.87;100.00
23118;BME280;11728;50.624;6.014;2023-02-04T07:39:51;100122.03;;;6.98;100.00
23118;BME280;11728;50.624;6.014;2023-02-04T07:44:52;100131.97;;;7.11;100.00
23118;BME280;11728;50.624;6.014;2023-02-04T07:49:52;100138.19;;;7.17;100.00
23118;BME280;11728;50.624;6.014;2023-02-04T07:54:56;100151.63;;;7.31;100.00
23118;BME280;11728;50.624;6.014;2023-02-04T07:59:56;100154.34;;;7.35;100.00
23118;BME280;11728;50.624;6.014;2023-02-04T08:04:56;100160.56;;;7.39;100.00
23118;BME280;11728;50.624;6.014;2023-02-04T08:09:57;100158.91;;;7.45;100.00
23118;BME280;11728;50.624;6.014;2023-02-04T08:14:57;100166.03;;;7.51;100.00
23118;BME280;11728;50.624;6.014;2023-02-04T08:20:00;100174.94;;;7.59;100.00
23118;BME280;11728;50.624;6.014;2023-02-04T08:25:02;100176.84;;;7.65;100.00
23118;BME280;11728;50.624;6.014;2023-02-04T08:30:04;100186.69;;;7.77;100.00
23118;BME280;11728;50.624;6.014;2023-02-04T08:35:06;100182.66;;;7.95;100.00
23118;BME280;11728;50.624;6.014;2023-02-04T08:40:07;100183.69;;;8.03;100.00
23118;BME280;11728;50.624;6.014;2023-02-04T08:45:08;100194.28;;;8.08;100.00
23118;BME280;11728;50.624;6.014;2023-02-04T08:50:09;100185.56;;;8.12;100.00
23118;BME280;11728;50.624;6.014;2023-02-04T08:55:10;100188.25;;;8.13;100.00
23118;BME280;11728;50.624;6.014;2023-02-04T09:00:11;100205.19;;;8.26;100.00
23118;BME280;11728;50.624;6.014;2023-02-04T09:05:11;100188.66;;;8.36;100.00
23118;BME280;11728;50.624;6.014;2023-02-04T09:10:12;100212.59;;;8.52;100.00
23118;BME280;11728;50.624;6.014;2023-02-04T09:15:12;100208.50;;;8.69;100.00
23118;BME280;11728;50.624;6.014;2023-02-04T09:20:12;100211.44;;;8.90;100.00
23118;BME280;11728;50.624;6.014;2023-02-04T09:25:13;100218.00;;;9.17;100.00
23118;BME280;11728;50.624;6.014;2023-02-04T09:30:13;100221.75;;;9.32;100.00
23118;BME280;11728;50.624;6.014;2023-02-04T09:35:14;100227.28;;;9.53;100.00
23118;BME280;11728;50.624;6.014;2023-02-04T09:40:16;100223.13;;;9.75;100.00
23118;BME280;11728;50.624;6.014;2023-02-04T09:45:20;100220.66;;;9.88;100.00
23118;BME280;11728;50.624;6.014;2023-02-04T09:50:24;100230.34;;;9.89;100.00
23118;BME280;11728;50.624;6.014;2023-02-04T09:55:33;100227.38;;;9.62;100.00
23118;BME280;11728;50.624;6.014;2023-02-04T10:00:34;100229.19;;;9.65;100.00
23118;BME280;11728;50.624;6.014;2023-02-04T10:05:34;100236.25;;;9.70;100.00
23118;BME280;11728;50.624;6.014;2023-02-04T10:10:36;100230.13;;;9.71;100.00
23118;BME280;11728;50.624;6.014;2023-02-04T10:15:37;100235.50;;;9.79;100.00
23118;BME280;11728;50.624;6.014;2023-02-04T10:20:37;100232.88;;;9.80;100.00
23118;BME280;11728;50.624;6.014;2023-02-04T10:25:39;100218.84;;;9.84;100.00
23118;BME280;11728;50.624;6.014;2023-02-04T10:30:41;100227.84;;;10.01;99.79
23118;BME280;11728;50.624;6.014;2023-02-04T10:35:48;100231.56;;;10.18;99.30
23118;BME280;11728;50.624;6.014;2023-02-04T10:41:03;100240.59;;;10.39;98.35
23118;BME280;11728;50.624;6.014;2023-02-04T10:46:04;100239.00;;;10.61;97.73
23118;BME280;11728;50.624;6.014;2023-02-04T10:51:05;100239.91;;;10.66;97.49
23118;BME280;11728;50.624;6.014;2023-02-04T10:56:15;100239.06;;;10.70;97.02
23118;BME280;11728;50.624;6.014;2023-02-04T11:01:15;100237.47;;;10.92;97.45
23118;BME280;11728;50.624;6.014;2023-02-04T11:06:25;100231.41;;;11.05;95.89
23118;BME280;11728;50.624;6.014;2023-02-04T11:11:25;100235.94;;;11.24;94.43
23118;BME280;11728;50.624;6.014;2023-02-04T11:16:28;100223.59;;;11.32;92.97
23118;BME280;11728;50.624;6.014;2023-02-04T11:26:37;100234.38;;;11.53;91.07
23118;BME280;11728;50.624;6.014;2023-02-04T11:31:56;100241.47;;;11.69;89.92
23118;BME280;11728;50.624;6.014;2023-02-04T11:37:05;100244.09;;;11.63;89.62
23118;BME280;11728;50.624;6.014;2023-02-04T11:42:21;100239.72;;;11.74;90.29
23118;BME280;11728;50.624;6.014;2023-02-04T11:47:23;100233.56;;;11.82;89.78
23118;BME280;11728;50.624;6.014;2023-02-04T11:52:24;100236.28;;;11.99;89.39
23118;BME280;11728;50.624;6.014;2023-02-04T11:57:25;100231.91;;;12.16;88.86
23118;BME280;11728;50.624;6.014;2023-02-04T12:02:26;100231.88;;;12.04;88.04
23118;BME280;11728;50.624;6.014;2023-02-04T12:07:28;100232.78;;;12.12;87.94
23118;BME280;11728;50.624;6.014;2023-02-04T12:12:29;100226.59;;;12.16;87.94
23118;BME280;11728;50.624;6.014;2023-02-04T12:17:30;100228.38;;;12.05;87.10
23118;BME280;11728;50.624;6.014;2023-02-04T12:22:30;100237.13;;;11.87;87.25
23118;BME280;11728;50.624;6.014;2023-02-04T12:27:30;100241.50;;;11.75;87.21
23118;BME280;11728;50.624;6.014;2023-02-04T12:32:31;100241.47;;;11.67;87.23
23118;BME280;11728;50.624;6.014;2023-02-04T12:37:34;100232.69;;;11.76;87.26
23118;BME280;11728;50.624;6.014;2023-02-04T12:42:34;100237.25;;;12.33;86.72
23118;BME280;11728;50.624;6.014;2023-02-04T12:47:35;100238.16;;;12.77;84.32
23118;BME280;11728;50.624;6.014;2023-02-04T12:52:35;100237.25;;;12.71;83.74
23118;BME280;11728;50.624;6.014;2023-02-04T12:57:36;100236.38;;;12.94;82.10
23118;BME280;11728;50.624;6.014;2023-02-04T13:02:37;100237.19;;;13.41;79.93
23118;BME280;11728;50.624;6.014;2023-02-04T13:07:38;100239.78;;;13.62;78.12
23118;BME280;11728;50.624;6.014;2023-02-04T13:12:39;100246.88;;;13.49;77.43
23118;BME280;11728;50.624;6.014;2023-02-04T13:17:40;100246.91;;;13.42;77.81
23118;BME280;11728;50.624;6.014;2023-02-04T13:22:40;100243.34;;;13.46;77.49
23118;BME280;11728;50.624;6.014;2023-02-04T13:27:41;100233.72;;;13.19;76.74
23118;BME280;11728;50.624;6.014;2023-02-04T13:32:42;100242.56;;;13.01;77.10
23118;BME280;11728;50.624;6.014;2023-02-04T13:37:42;100245.19;;;12.87;77.29
23118;BME280;11728;50.624;6.014;2023-02-04T13:42:43;100242.56;;;12.72;77.40
23118;BME280;11728;50.624;6.014;2023-02-04T13:47:43;100240.78;;;12.64;76.99
23118;BME280;11728;50.624;6.014;2023-02-04T13:52:44;100237.25;;;12.56;76.46
23118;BME280;11728;50.624;6.014;2023-02-04T13:57:44;100240.81;;;12.52;76.71
23118;BME280;11728;50.624;6.014;2023-02-04T14:02:44;100232.84;;;12.53;76.86
23118;BME280;11728;50.624;6.014;2023-02-04T14:07:45;100225.72;;;13.34;75.56
23118;BME280;11728;50.624;6.014;2023-02-04T14:12:45;100215.94;;;14.89;71.72
23118;BME280;11728;50.624;6.014;2023-02-04T14:17:46;100219.13;;;14.23;71.67
23118;BME280;11728;50.624;6.014;2023-02-04T14:22:46;100232.81;;;13.28;72.91
23118;BME280;11728;50.624;6.014;2023-02-04T14:27:47;100227.56;;;12.62;74.07
23118;BME280;11728;50.624;6.014;2023-02-04T14:32:47;100220.44;;;12.23;74.92
23118;BME280;11728;50.624;6.014;2023-02-04T14:37:47;100226.53;;;11.92;75.04
23118;BME280;11728;50.624;6.014;2023-02-04T14:42:48;100228.25;;;11.72;75.67
23118;BME280;11728;50.624;6.014;2023-02-04T14:47:48;100227.31;;;11.58;76.18
23118;BME280;11728;50.624;6.014;2023-02-04T14:52:50;100225.47;;;11.47;76.61
23118;BME280;11728;50.624;6.014;2023-02-04T14:57:51;100238.66;;;11.42;76.40
23118;BME280;11728;50.624;6.014;2023-02-04T15:02:52;100243.03;;;11.31;76.87
23118;BME280;11728;50.624;6.014;2023-02-04T15:07:52;100237.66;;;11.19;77.20
23118;BME280;11728;50.624;6.014;2023-02-04T15:12:53;100244.66;;;11.08;77.61
23118;BME280;11728;50.624;6.014;2023-02-04T15:17:54;100251.66;;;11.00;77.92
23118;BME280;11728;50.624;6.014;2023-02-04T15:22:54;100258.66;;;10.98;78.26
23118;BME280;11728;50.624;6.014;2023-02-04T15:27:55;100269.22;;;10.92;77.62
23118;BME280;11728;50.624;6.014;2023-02-04T15:32:55;100276.28;;;10.95;77.74
23118;BME280;11728;50.624;6.014;2023-02-04T15:37:56;100270.13;;;10.96;77.81
23118;BME280;11728;50.624;6.014;2023-02-04T15:42:56;100272.69;;;10.87;78.60
23118;BME280;11728;50.624;6.014;2023-02-04T15:47:56;100274.38;;;10.80;78.98
23118;BME280;11728;50.624;6.014;2023-02-04T15:52:57;100269.00;;;10.70;79.52
23118;BME280;11728;50.624;6.014;2023-02-04T15:57:57;100265.41;;;10.58;80.07
23118;BME280;11728;50.624;6.014;2023-02-04T16:02:57;100268.78;;;10.45;81.15
23118;BME280;11728;50.624;6.014;2023-02-04T16:20:10;100271.97;;;10.11;84.21
23118;BME280;11728;50.624;6.014;2023-02-04T16:25:11;100270.00;;;9.95;85.72
23118;BME280;11728;50.624;6.014;2023-02-04T16:30:12;100269.81;;;9.80;87.13
23118;BME280;11728;50.624;6.014;2023-02-04T16:35:12;100275.88;;;9.72;88.20
23118;BME280;11728;50.624;6.014;2023-02-04T16:40:13;100285.41;;;9.62;88.89
23118;BME280;11728;50.624;6.014;2023-02-04T16:45:14;100279.97;;;9.52;89.55
23118;BME280;11728;50.624;6.014;2023-02-04T16:50:15;100279.97;;;9.50;90.16
23118;BME280;11728;50.624;6.014;2023-02-04T16:55:15;100292.25;;;9.47;90.63
23118;BME280;11728;50.624;6.014;2023-02-04T17:00:16;100298.34;;;9.44;91.03
23118;BME280;11728;50.624;6.014;2023-02-04T17:05:16;100304.41;;;9.37;91.73
23118;BME280;11728;50.624;6.014;2023-02-04T17:10:17;100309.63;;;9.34;92.23
23118;BME280;11728;50.624;6.014;2023-02-04T17:15:37;100316.59;;;9.29;91.85
23118;BME280;11728;50.624;6.014;2023-02-04T17:20:39;100312.09;;;9.21;92.10
23118;BME280;11728;50.624;6.014;2023-02-04T17:25:39;100313.75;;;9.16;93.07
23118;BME280;11728;50.624;6.014;2023-02-04T17:30:40;100318.13;;;9.14;93.84
23118;BME280;11728;50.624;6.014;2023-02-04T17:35:40;100315.44;;;9.11;94.14
23118;BME280;11728;50.624;6.014;2023-02-04T17:40:40;100321.41;;;9.00;94.56
23118;BME280;11728;50.624;6.014;2023-02-04T17:45:41;100323.81;;;8.86;95.57
23118;BME280;11728;50.624;6.014;2023-02-04T17:50:42;100324.63;;;8.81;95.63
23118;BME280;11728;50.624;6.014;2023-02-04T17:55:42;100326.31;;;8.79;95.45
23118;BME280;11728;50.624;6.014;2023-02-04T18:00:44;100328.22;;;8.89;94.95
23118;BME280;11728;50.624;6.014;2023-02-04T18:05:47;100324.72;;;8.87;95.16
23118;BME280;11728;50.624;6.014;2023-02-04T18:10:49;100334.50;;;8.94;94.89
23118;BME280;11728;50.624;6.014;2023-02-04T18:15:58;100333.63;;;8.95;94.85
23118;BME280;11728;50.624;6.014;2023-02-04T18:21:04;100343.25;;;8.93;94.93
23118;BME280;11728;50.624;6.014;2023-02-04T18:26:18;100343.25;;;8.93;95.46
23118;BME280;11728;50.624;6.014;2023-02-04T18:31:24;100340.63;;;8.94;95.34
23118;BME280;11728;50.624;6.014;2023-02-04T18:36:28;100335.44;;;8.99;95.71
23118;BME280;11728;50.624;6.014;2023-02-04T18:41:31;100331.75;;;8.88;95.91
23118;BME280;11728;50.624;6.014;2023-02-04T18:46:45;100334.22;;;8.77;96.81
23118;BME280;11728;50.624;6.014;2023-02-04T18:51:47;100338.56;;;8.77;97.26
23118;BME280;11728;50.624;6.014;2023-02-04T18:56:48;100338.31;;;8.62;97.91
23118;BME280;11728;50.624;6.014;2023-02-04T19:01:48;100346.97;;;8.55;98.71
23118;BME280;11728;50.624;6.014;2023-02-04T19:06:49;100346.97;;;8.55;99.22
23118;BME280;11728;50.624;6.014;2023-02-04T19:11:54;100334.72;;;8.57;99.50
23118;BME280;11728;50.624;6.014;2023-02-04T19:17:02;100334.53;;;8.48;100.00
23118;BME280;11728;50.624;6.014;2023-02-04T19:22:28;100334.38;;;8.39;100.00
23118;BME280;11728;50.624;6.014;2023-02-04T19:27:33;100331.53;;;8.29;100.00
23118;BME280;11728;50.624;6.014;2023-02-04T19:32:44;100335.69;;;8.16;100.00
23118;BME280;11728;50.624;6.014;2023-02-04T19:37:56;100339.25;;;8.20;100.00
23118;BME280;11728;50.624;6.014;2023-02-04T19:43:26;100336.59;;;8.17;100.00
23118;BME280;11728;50.624;6.014;2023-02-04T19:48:33;100337.53;;;8.20;100.00
23118;BME280;11728;50.624;6.014;2023-02-04T19:53:35;100333.09;;;8.18;100.00
23118;BME280;11728;50.624;6.014;2023-02-04T19:58:41;100336.47;;;8.14;100.00
23118;BME280;11728;50.624;6.014;2023-02-04T20:08:46;100336.69;;;8.21;100.00
23118;BME280;11728;50.624;6.014;2023-02-04T20:13:49;100339.25;;;8.18;100.00
23118;BME280;11728;50.624;6.014;2023-02-04T20:18:54;100334.91;;;8.22;100.00
23118;BME280;11728;50.624;6.014;2023-02-04T20:23:54;100342.16;;;8.33;100.00
23118;BME280;11728;50.624;6.014;2023-02-04T20:28:54;100354.56;;;8.39;100.00
23118;BME280;11728;50.624;6.014;2023-02-04T20:33:57;100342.19;;;8.35;100.00
23118;BME280;11728;50.624;6.014;2023-02-04T20:44:15;100334.53;;;8.48;100.00
23118;BME280;11728;50.624;6.014;2023-02-04T20:49:21;100326.72;;;8.51;100.00
23118;BME280;11728;50.624;6.014;2023-02-04T20:54:22;100327.66;;;8.54;100.00
23118;BME280;11728;50.624;6.014;2023-02-04T20:59:31;100334.56;;;8.49;100.00
23118;BME280;11728;50.624;6.014;2023-02-04T21:04:34;100319.69;;;8.50;100.00
23118;BME280;11728;50.624;6.014;2023-02-04T21:09:37;100322.41;;;8.56;100.00
23118;BME280;11728;50.624;6.014;2023-02-04T21:14:39;100317.19;;;8.59;100.00
23118;BME280;11728;50.624;6.014;2023-02-04T21:19:40;100328.72;;;8.67;100.00
23118;BME280;11728;50.624;6.014;2023-02-04T21:24:40;100322.75;;;8.75;100.00
23118;BME280;11728;50.624;6.014;2023-02-04T21:29:43;100327.97;;;8.74;100.00
23118;BME280;11728;50.624;6.014;2023-02-04T21:34:44;100330.56;;;8.71;100.00
23118;BME280;11728;50.624;6.014;2023-02-04T21:39:44;100334.91;;;8.69;100.00
23118;BME280;11728;50.624;6.014;2023-02-04T21:44:44;100330.56;;;8.71;100.00
23118;BME280;11728;50.624;6.014;2023-02-04T21:49:44;100327.00;;;8.67;100.00
23118;BME280;11728;50.624;6.014;2023-02-04T21:54:45;100323.44;;;8.65;100.00
23118;BME280;11728;50.624;6.014;2023-02-04T21:59:45;100328.72;;;8.65;100.00
23118;BME280;11728;50.624;6.014;2023-02-04T22:04:47;100332.28;;;8.67;100.00
23118;BME280;11728;50.624;6.014;2023-02-04T22:09:47;100333.16;;;8.68;100.00
23118;BME280;11728;50.624;6.014;2023-02-04T22:14:49;100333.06;;;8.63;100.00
23118;BME280;11728;50.624;6.014;2023-02-04T22:20:09;100321.59;;;8.60;100.00
23118;BME280;11728;50.624;6.014;2023-02-04T22:25:11;100317.19;;;8.59;100.00
23118;BME280;11728;50.624;6.014;2023-02-04T22:30:14;100308.47;;;8.61;100.00
23118;BME280;11728;50.624;6.014;2023-02-04T22:35:15;100314.63;;;8.63;100.00
23118;BME280;11728;50.624;6.014;2023-02-04T22:40:15;100313.69;;;8.60;100.00
23118;BME280;11728;50.624;6.014;2023-02-04T22:45:16;100309.28;;;8.59;100.00
23118;BME280;11728;50.624;6.014;2023-02-04T22:50:16;100314.53;;;8.57;100.00
23118;BME280;11728;50.624;6.014;2023-02-04T22:55:16;100320.63;;;8.53;100.00
23118;BME280;11728;50.624;6.014;2023-02-04T23:00:17;100318.81;;;8.51;100.00
23118;BME280;11728;50.624;6.014;2023-02-04T23:05:17;100332.78;;;8.48;100.00
23118;BME280;11728;50.624;6.014;2023-02-04T23:10:18;100334.53;;;8.48;100.00
23118;BME280;11728;50.624;6.014;2023-02-04T23:15:18;100329.34;;;8.51;100.00
23118;BME280;11728;50.624;6.014;2023-02-04T23:20:18;100345.16;;;8.51;100.00
23118;BME280;11728;50.624;6.014;2023-02-04T23:25:20;100349.47;;;8.47;100.00
23118;BME280;11728;50.624;6.014;2023-02-04T23:30:20;100352.88;;;8.43;100.00
23118;BME280;11728;50.624;6.014;2023-02-04T23:35:21;100351.19;;;8.45;100.00
23118;BME280;11728;50.624;6.014;2023-02-04T23:40:21;100360.81;;;8.45;100.00
23118;BME280;11728;50.624;6.014;2023-02-04T23:45:22;100357.31;;;8.46;100.00
23118;BME280;11728;50.624;6.014;2023-02-04T23:50:22;100352.06;;;8.46;100.00
23118;BME280;11728;50.624;6.014;2023-02-04T23:55:22;100350.25;;;8.42;100.00
